x

Buoy E01 - Central Maine Shelf (44032) Wave Buoy

9:04am - Thu 26th May 2016 All times are EDT. -4 hours from GMT.

  • Sig Wave height 2.6ft
  • Peak Period 8s
  • Wind
    7mph
  • Sea Temp 51°f
  • 空気 Temp 56°f
  • Sea Pressure 1017.7mb
  • Buoy E01 - Central Maine Shelf
  • Buoy E01 - Central Maine Shelf

More Historic Weather Station data

Upgrade to MSW Pro to gain access to the past 30 days of data for over 8000 Wavebouys and Weather Stations around the globe.

Join Pro

Comparision Forecast

View Surf forecast
   
Thu 05/26 9:04am 2.5ft 8s 7
mph
1017.7mb 51f 56f
8:04am 2.5ft 8s 2 4 mph 1017.5mb 51f 56f
7:04am 2.5ft 8s 7 9 mph 1016.8mb 51f 55f
6:04am 2.5ft 8s 4
mph
1016.2mb 51f 56f
5:04am 2.5ft 8s 4 7 mph 1015.2mb 51f 54f
4:04am 2.5ft 11s 7 9 mph 1014.4mb 51f 53f
3:04am 3ft 6s 2 4 mph 1013.8mb 51f 53f
2:04am 3.5ft 6s 9
mph
1013.2mb 51f 53f
1:04am 4ft 8s 4 7 mph 1012.8mb 51f 53f
12:04am 3ft 8s 4 13 mph 1012.8mb 51f 52f
Wed 05/25 11:04pm 3.5ft 8s 9 11 mph 1013.2mb 51f 52f
10:04pm 3.5ft 8s 4 9 mph 1013.8mb 51f 52f
9:04pm 3.5ft 8s 4 7 mph 1013.8mb 51f 52f
8:04pm 3.5ft 8s 4 7 mph 1012.5mb 51f 52f
7:04pm 3.5ft 8s 4
mph
1012.7mb 51f 52f
6:04pm 4ft 8s 7 13 mph 1013.3mb 51f 52f
5:04pm 3.5ft 8s 9 11 mph 1012.7mb 51f 51f
4:04pm 3.5ft 11s 11 13 mph 1012.7mb 51f 51f
3:04pm 3.5ft 8s 11 13 mph 1013mb 51f 50f
2:04pm 3.5ft 8s 9 11 mph 1013.2mb 51f 50f
1:04pm 4.5ft 8s 7 9 mph 1013.9mb 51f 50f
12:04pm 4ft 8s 9 11 mph 1014.4mb 51f 49f
11:04am 4ft 8s 7 9 mph 1014.3mb 51f 51f
10:04am 4ft 8s 7 11 mph 1014.4mb 51f 50f
9:04am 3.5ft 8s 4 7 mph 1014.5mb 51f 50f
8:04am 3ft 8s 2 4 mph 1014.2mb 50f 51f
7:04am 3ft 8s 4
mph
1014.4mb 50f 50f
6:04am 3.5ft 8s 4 7 mph 1014.3mb 50f 50f
5:04am 2.5ft 8s  -  2 mph 1013.1mb 50f 50f
4:04am 3.5ft 8s 4 7 mph 1013.2mb 50f 50f
3:04am 2.5ft 11s  -  2 mph 1013.2mb 50f 50f
2:04am 3ft 8s 7
mph
1012.9mb 50f 49f
1:04am 3.5ft 8s 7
mph
1013mb 50f 49f
12:04am 3.5ft 8s 4 7 mph 1013.7mb 50f 49f
Tue 05/24 11:04pm 4ft 8s 9 11 mph 1013.5mb 50f 49f
10:04pm 3.5ft 8s 9 11 mph 1013.6mb 50f 49f
9:04pm 4.5ft 8s 9
mph
1013.8mb 50f 49f
8:04pm 4.5ft 8s 9 11 mph 1013.8mb 50f 50f
7:04pm 4ft 8s 9 11 mph 1013.7mb 50f 50f
6:04pm 4ft 8s 11 13 mph 1013.3mb 50f 50f
5:04pm 5ft 11s 11
mph
1013.6mb 50f 50f
4:04pm 4ft 11s 11 16 mph 1013.5mb 50f 50f
3:04pm 5ft 11s 16 18 mph 1013.3mb 50f 49f
2:04pm 4.5ft 8s 13 16 mph 1013.8mb 50f 49f
1:04pm 4.5ft 8s 16 18 mph 1013.6mb 50f 49f
12:04pm 5ft 11s 18 20 mph 1013.7mb 50f 49f
11:04am 5ft 11s 18 22 mph 1013.9mb 51f 49f
10:04am 4.5ft 8s 18 20 mph 1013.6mb 51f 49f
9:04am 5ft 8s 16 18 mph 1013.8mb 51f 49f
8:04am 5ft 8s 13 16 mph 1013.9mb 51f 49f
5:04am 4.5ft 11s 13 16 mph 1013.2mb 50f 50f
4:04am 4ft 11s 11 13 mph 1013.4mb 50f 51f
3:04am 4.5ft 11s 9 11 mph 1012.8mb 50f 51f
2:04am 3.5ft 11s 9
mph
1012.8mb 51f 52f
1:04am 4.5ft 11s 7 9 mph 1012.7mb 50f 51f
12:04am 4ft 11s 9 11 mph 1013mb 51f 52f
Mon 05/23 11:04pm 4.5ft 11s 7
mph
1013mb 51f 52f
10:04pm 5.5ft 11s 2 4 mph 1012.8mb 51f 52f
9:04pm 5ft 11s 2
mph
1012.5mb 51f 53f
8:04pm 5.5ft 11s 2 4 mph 1011.8mb 51f 53f
7:04pm 6ft 11s 7
mph
1012.5mb 51f 54f
6:04pm 6ft 11s 9 11 mph 1012mb 52f 54f
5:04pm 4.5ft 11s 11 16 mph 1010.8mb 54f 56f
4:04pm 4.5ft 11s 7 9 mph 1010.3mb 53f 58f
3:04pm 4ft 11s 7
mph
1010.1mb 52f 60f
2:04pm 4.5ft 11s 2 7 mph 1010.5mb 52f 65f
1:04pm 6ft 11s 4
mph
1010.7mb 51f 62f
12:04pm 5ft 11s 2 4 mph 1011mb 52f 58f
11:04am 5ft 11s 7
mph
1011.1mb 51f 57f
10:04am 5ft 11s 4 7 mph 1011.2mb 50f 54f
9:04am 5ft 11s 7 9 mph 1011.4mb 50f 54f
8:04am 6ft 11s 9 13 mph 1011.5mb 50f 52f
7:04am 6.5ft 11s 7
mph
1011.6mb 49f 52f
6:04am 6ft 11s 7 9 mph 1011.4mb 49f 51f
5:04am 7ft 11s 4 7 mph 1010.5mb 49f 51f
4:04am 5ft 11s 7 9 mph 1010.1mb 49f 51f
3:04am 4.5ft 11s 7
mph
1010.5mb 49f 51f
2:04am 4.5ft 11s 9
mph
1010.5mb 50f 51f
1:04am 4ft 11s 9 11 mph 1010.3mb 50f 51f
12:04am 4.5ft 11s 4 9 mph 1010.4mb 50f 51f
Sun 05/22 11:04pm 4ft 11s 9 11 mph 1010.2mb 50f 51f
10:04pm 4.5ft 11s 7 9 mph 1009.8mb 50f 52f
9:04pm 5ft 11s 7 9 mph 1009.7mb 50f 52f
8:04pm 3.5ft 11s 7 9 mph 1009.8mb 50f 52f
7:04pm  -   -  7 9 mph 1009mb 50f 53f
6:04pm 1.6ft 8s 7
mph
1008.7mb 50f 52f
5:04pm 1.6ft 8s 9
mph
1008.7mb 50f 52f
4:04pm 1.6ft 8s 11 13 mph 1008.9mb 50f 52f
3:04pm 1.6ft 8s 7 9 mph 1009.3mb 50f 53f